createdAt,value
2023-04-13T00:00:12.965Z,51.29
2023-04-13T00:02:39.991Z,51.49
2023-04-13T00:05:08.346Z,51.78
2023-04-13T00:07:35.262Z,52.01
2023-04-13T00:10:03.551Z,52.04
2023-04-13T00:12:30.966Z,52.06
2023-04-13T00:14:57.769Z,52.37
2023-04-13T00:17:26.548Z,52.48
2023-04-13T00:19:54.035Z,52.62
2023-04-13T00:22:20.800Z,52.67
2023-04-13T00:24:48.084Z,52.63
2023-04-13T00:27:15.000Z,52.51
2023-04-13T00:29:41.933Z,52.60
2023-04-13T00:32:08.680Z,52.61
2023-04-13T00:34:36.250Z,52.54
2023-04-13T00:37:04.092Z,52.39
2023-04-13T00:39:31.601Z,52.33
2023-04-13T00:42:02.444Z,52.20
2023-04-13T00:44:30.907Z,52.04
2023-04-13T00:46:57.723Z,52.11
2023-04-13T00:49:24.677Z,52.07
2023-04-13T00:51:51.515Z,52.21
2023-04-13T00:54:18.649Z,52.18
2023-04-13T00:56:45.517Z,52.24
2023-04-13T00:59:13.002Z,52.37
2023-04-13T01:01:46.821Z,52.58
2023-04-13T01:04:14.204Z,52.39
2023-04-13T01:06:45.215Z,52.49
2023-04-13T01:09:15.501Z,52.82
2023-04-13T01:11:54.254Z,52.77
2023-04-13T01:14:25.022Z,52.71
2023-04-13T01:16:57.572Z,52.94
2023-04-13T01:19:44.583Z,52.65
2023-04-13T01:22:14.599Z,52.91
2023-04-13T01:24:53.719Z,52.82
2023-04-13T01:27:55.499Z,52.59
2023-04-13T01:30:23.866Z,52.70
2023-04-13T01:32:51.799Z,52.63
2023-04-13T01:35:22.914Z,52.69
2023-04-13T01:37:52.944Z,52.58
2023-04-13T01:40:21.546Z,52.46
2023-04-13T01:42:48.311Z,52.19
2023-04-13T01:45:25.170Z,51.98
2023-04-13T01:48:31.744Z,51.93
2023-04-13T01:51:01.621Z,52.04
2023-04-13T01:53:28.983Z,52.04
2023-04-13T01:55:55.959Z,52.05
2023-04-13T01:58:23.680Z,51.97
2023-04-13T02:00:50.770Z,52.05
2023-04-13T02:03:18.402Z,52.05
2023-04-13T02:05:46.265Z,52.31
2023-04-13T02:08:14.030Z,52.31
2023-04-13T02:10:42.590Z,52.51
2023-04-13T02:13:12.096Z,52.75
2023-04-13T02:15:38.968Z,53.08
2023-04-13T02:18:06.282Z,53.28
2023-04-13T02:20:40.464Z,53.62
2023-04-13T02:23:09.171Z,53.60
2023-04-13T02:25:36.423Z,53.46
2023-04-13T02:28:03.471Z,53.36
2023-04-13T02:30:30.359Z,53.39
2023-04-13T02:32:57.405Z,53.13
2023-04-13T02:35:25.909Z,53.41
2023-04-13T02:37:52.665Z,53.45
2023-04-13T02:40:21.131Z,53.67
2023-04-13T02:42:48.538Z,53.59
2023-04-13T02:45:18.133Z,53.94
2023-04-13T02:47:45.243Z,53.72
2023-04-13T02:50:12.815Z,53.72
2023-04-13T02:52:39.583Z,53.49
2023-04-13T02:55:08.407Z,53.63
2023-04-13T02:57:35.163Z,53.59
2023-04-13T03:00:01.917Z,53.36
2023-04-13T03:02:30.318Z,53.28
2023-04-13T03:04:57.552Z,53.69
2023-04-13T03:07:24.830Z,54.04
2023-04-13T03:09:53.237Z,54.37
2023-04-13T03:12:20.383Z,54.50
2023-04-13T03:14:47.254Z,54.73
2023-04-13T03:17:14.979Z,54.94
2023-04-13T03:19:42.068Z,55.07
2023-04-13T03:22:10.230Z,55.30
2023-04-13T03:24:37.476Z,55.34
2023-04-13T03:27:04.343Z,55.36
2023-04-13T03:29:32.103Z,55.41
2023-04-13T03:31:58.932Z,55.66
2023-04-13T03:34:25.727Z,55.81
2023-04-13T03:36:53.239Z,56.02
2023-04-13T03:39:20.004Z,56.04
2023-04-13T03:41:47.186Z,55.97
2023-04-13T03:44:14.145Z,56.10
2023-04-13T03:46:41.544Z,56.22
2023-04-13T03:49:11.454Z,56.17
2023-04-13T03:51:38.197Z,56.08
2023-04-13T03:54:05.086Z,56.10
2023-04-13T03:56:31.820Z,56.47
2023-04-13T03:58:59.318Z,56.51
2023-04-13T04:01:27.209Z,56.99
2023-04-13T04:03:57.242Z,57.19
2023-04-13T04:06:24.803Z,57.56
2023-04-13T04:08:51.629Z,57.72
2023-04-13T04:11:18.498Z,57.91
2023-04-13T04:13:45.691Z,57.65
2023-04-13T04:16:12.782Z,58.23
2023-04-13T04:18:39.549Z,58.14
2023-04-13T04:21:07.246Z,58.23
2023-04-13T04:23:37.920Z,58.35
2023-04-13T04:26:05.253Z,58.42
2023-04-13T04:28:32.400Z,58.53
2023-04-13T04:31:01.415Z,58.65
2023-04-13T04:33:28.272Z,58.68
2023-04-13T04:35:56.161Z,58.46
2023-04-13T04:38:23.666Z,58.46
2023-04-13T04:40:50.616Z,58.30
2023-04-13T04:43:17.828Z,58.18
2023-04-13T04:45:45.625Z,58.42
2023-04-13T04:48:15.347Z,58.45
2023-04-13T04:50:45.294Z,58.41
2023-04-13T04:53:12.438Z,58.21
2023-04-13T04:55:39.527Z,58.29
2023-04-13T04:58:06.937Z,58.26
2023-04-13T05:00:33.880Z,58.18
2023-04-13T05:03:01.811Z,58.16
2023-04-13T05:05:30.781Z,58.18
2023-04-13T05:07:57.993Z,58.10
2023-04-13T05:10:27.147Z,58.19
2023-04-13T05:12:54.356Z,58.40
2023-04-13T05:15:21.295Z,58.49
2023-04-13T05:17:51.236Z,58.49
2023-04-13T05:20:19.572Z,58.51
2023-04-13T05:22:46.421Z,58.49
2023-04-13T05:25:14.847Z,58.46
2023-04-13T05:27:41.797Z,58.72
2023-04-13T05:30:09.740Z,58.67
2023-04-13T05:32:36.830Z,58.77
2023-04-13T05:35:04.604Z,59.27
2023-04-13T05:37:32.106Z,59.13
2023-04-13T05:39:59.158Z,59.27
2023-04-13T05:42:25.994Z,59.74
2023-04-13T05:44:52.805Z,59.75
2023-04-13T05:47:22.154Z,60.30
2023-04-13T05:49:48.972Z,60.38
2023-04-13T05:52:15.887Z,60.62
2023-04-13T05:54:42.805Z,60.72
2023-04-13T05:57:09.628Z,60.75
2023-04-13T05:59:37.034Z,61.30
2023-04-13T06:02:04.059Z,61.85
2023-04-13T06:04:31.631Z,62.40
2023-04-13T06:06:59.286Z,63.03
2023-04-13T06:09:26.188Z,63.77
2023-04-13T06:11:54.465Z,63.89
2023-04-13T06:14:22.308Z,64.51
2023-04-13T06:16:49.222Z,64.95
2023-04-13T06:19:16.076Z,65.31
2023-04-13T06:21:42.950Z,65.70
2023-04-13T06:24:09.914Z,66.50
2023-04-13T06:26:37.551Z,67.27
2023-04-13T06:29:04.509Z,67.28
2023-04-13T06:31:31.946Z,67.85
2023-04-13T06:33:58.721Z,68.50
2023-04-13T06:36:25.860Z,69.20
2023-04-13T06:38:52.636Z,69.40
2023-04-13T06:41:19.461Z,70.10
2023-04-13T06:43:46.725Z,70.17
2023-04-13T06:46:14.759Z,70.22
2023-04-13T06:48:41.824Z,70.49
2023-04-13T06:51:08.753Z,70.98
2023-04-13T06:53:35.820Z,71.68
2023-04-13T06:56:02.582Z,71.60
2023-04-13T06:58:29.533Z,71.74
2023-04-13T07:00:56.357Z,71.87
2023-04-13T07:03:23.332Z,71.82
2023-04-13T07:05:50.505Z,71.97
2023-04-13T07:08:19.423Z,71.91
2023-04-13T07:10:46.798Z,72.00
2023-04-13T07:13:13.883Z,71.76
2023-04-13T07:15:40.823Z,71.52
2023-04-13T07:18:07.671Z,71.36
2023-04-13T07:20:35.873Z,71.09
2023-04-13T07:23:02.743Z,70.97
2023-04-13T07:25:29.509Z,70.67
2023-04-13T07:27:56.556Z,70.68
2023-04-13T07:30:23.421Z,71.21
2023-04-13T07:32:50.255Z,71.25
2023-04-13T07:35:17.159Z,71.08
2023-04-13T07:37:44.782Z,71.37
2023-04-13T07:40:12.184Z,71.51
2023-04-13T07:42:39.630Z,71.88
2023-04-13T07:45:07.535Z,71.54
2023-04-13T07:47:34.345Z,69.84
2023-04-13T07:50:01.226Z,68.52
2023-04-13T07:52:28.875Z,68.45
2023-04-13T07:54:55.692Z,68.42
2023-04-13T07:57:22.483Z,68.30
2023-04-13T07:59:49.533Z,66.34
2023-04-13T08:02:18.139Z,65.60
2023-04-13T08:04:45.043Z,65.48
2023-04-13T08:07:11.995Z,64.65
2023-04-13T08:09:40.307Z,64.81
2023-04-13T08:12:08.371Z,64.92
2023-04-13T08:14:35.623Z,64.83
2023-04-13T08:17:04.435Z,64.87
2023-04-13T08:19:31.220Z,64.86
2023-04-13T08:21:58.711Z,64.48
2023-04-13T08:24:26.020Z,64.21
2023-04-13T08:26:55.230Z,63.95
2023-04-13T08:29:24.319Z,64.67
2023-04-13T08:31:51.579Z,64.77
2023-04-13T08:34:18.749Z,64.99
2023-04-13T08:36:48.351Z,65.32
2023-04-13T08:39:15.227Z,65.52
2023-04-13T08:41:45.937Z,65.71
2023-04-13T08:44:13.755Z,67.05
2023-04-13T08:46:42.514Z,68.48
2023-04-13T08:49:10.826Z,69.64
2023-04-13T08:51:38.210Z,70.32
2023-04-13T08:54:05.631Z,69.96
2023-04-13T08:56:44.393Z,69.49
2023-04-13T08:59:13.113Z,69.61
2023-04-13T09:01:39.950Z,68.19
2023-04-13T09:04:11.853Z,66.84
2023-04-13T09:06:43.355Z,65.02
2023-04-13T09:09:16.502Z,64.74
2023-04-13T09:11:46.168Z,63.67
2023-04-13T09:14:14.076Z,62.88
2023-04-13T09:16:44.042Z,62.61
2023-04-13T09:19:13.100Z,62.77
2023-04-13T09:21:45.029Z,62.76
2023-04-13T09:24:13.011Z,63.70
2023-04-13T09:26:46.792Z,61.88
2023-04-13T09:29:14.998Z,58.90
2023-04-13T09:31:44.412Z,58.63
2023-04-13T09:34:12.112Z,59.44
2023-04-13T09:36:49.498Z,59.51
2023-04-13T09:39:29.905Z,57.95
2023-04-13T09:41:58.374Z,57.86
2023-04-13T09:44:27.628Z,57.33
2023-04-13T09:47:01.413Z,55.73
2023-04-13T09:49:41.225Z,54.84
2023-04-13T09:52:19.061Z,54.33
2023-04-13T09:54:50.081Z,53.77
2023-04-13T09:57:30.902Z,53.54
2023-04-13T10:00:00.932Z,53.54
2023-04-13T10:02:28.385Z,53.97
2023-04-13T10:04:56.078Z,54.77
2023-04-13T10:07:26.908Z,55.89
2023-04-13T10:09:54.520Z,56.61
2023-04-13T10:12:21.359Z,56.06
2023-04-13T10:14:48.953Z,56.38
2023-04-13T10:17:40.254Z,55.29
2023-04-13T10:20:10.453Z,54.75
2023-04-13T10:22:37.905Z,53.92
2023-04-13T10:25:07.256Z,52.80
2023-04-13T10:27:36.583Z,53.54
2023-04-13T10:30:13.231Z,54.03
2023-04-13T10:32:40.084Z,52.75
2023-04-13T10:35:13.640Z,49.97
2023-04-13T10:37:41.766Z,48.97
2023-04-13T10:40:13.517Z,47.88
2023-04-13T10:42:52.448Z,45.56
2023-04-13T10:45:24.288Z,45.65
2023-04-13T10:47:51.280Z,45.16
2023-04-13T10:50:22.851Z,44.71
2023-04-13T10:53:05.887Z,43.77
2023-04-13T10:55:33.304Z,43.85
2023-04-13T10:58:00.690Z,44.27
2023-04-13T11:00:42.470Z,45.45
2023-04-13T11:03:15.720Z,45.08
2023-04-13T11:05:43.819Z,44.61
2023-04-13T11:08:19.063Z,44.36
2023-04-13T11:10:56.213Z,45.11
2023-04-13T11:13:25.535Z,45.00
2023-04-13T11:15:52.154Z,45.80
2023-04-13T11:18:28.446Z,44.09
2023-04-13T11:20:55.421Z,44.45
2023-04-13T11:23:24.234Z,44.56
2023-04-13T11:25:55.175Z,43.66
2023-04-13T11:28:23.047Z,42.91
2023-04-13T11:30:58.749Z,42.48
2023-04-13T11:33:30.154Z,42.62
2023-04-13T11:35:58.956Z,42.53
2023-04-13T11:38:25.859Z,41.67
2023-04-13T11:40:58.852Z,40.92
2023-04-13T11:43:28.898Z,41.47
2023-04-13T11:45:55.680Z,41.71
2023-04-13T11:48:22.478Z,41.81
2023-04-13T11:50:49.334Z,41.93
2023-04-13T11:53:16.862Z,42.52
2023-04-13T11:55:52.783Z,43.22
2023-04-13T11:58:21.098Z,43.49
2023-04-13T12:00:48.404Z,43.99
2023-04-13T12:05:48.061Z,44.50
2023-04-13T12:08:25.500Z,45.29
2023-04-13T12:19:09.862Z,44.47
2023-04-13T12:21:37.097Z,43.81
2023-04-13T12:24:05.777Z,44.42
2023-04-13T12:27:16.960Z,44.70
2023-04-13T12:29:28.376Z,45.41
2023-04-13T12:32:03.963Z,44.77
2023-04-13T12:34:31.037Z,43.54
2023-04-13T12:36:58.242Z,42.73
2023-04-13T12:39:25.027Z,42.11
2023-04-13T12:41:52.649Z,41.38
2023-04-13T12:44:19.404Z,40.73
2023-04-13T12:46:46.653Z,39.97
2023-04-13T12:49:13.482Z,40.05
2023-04-13T12:51:40.499Z,40.17
2023-04-13T12:54:13.305Z,40.09
2023-04-13T12:56:41.007Z,40.75
2023-04-13T12:59:07.933Z,41.52
2023-04-13T13:01:37.866Z,41.85
2023-04-13T13:04:05.605Z,40.91
2023-04-13T13:06:34.279Z,40.63
2023-04-13T13:09:01.438Z,40.42
2023-04-13T13:11:28.694Z,39.68
2023-04-13T13:13:55.900Z,38.82
2023-04-13T13:16:22.686Z,38.28
2023-04-13T13:18:51.541Z,38.61
2023-04-13T13:21:18.759Z,38.35
2023-04-13T13:23:46.136Z,38.32
2023-04-13T13:28:42.913Z,38.32
2023-04-13T13:31:09.722Z,38.41
2023-04-13T13:33:36.818Z,38.93
2023-04-13T13:36:04.954Z,39.32
2023-04-13T13:38:31.693Z,39.29
2023-04-13T13:40:58.535Z,39.38
2023-04-13T13:43:25.689Z,39.70
2023-04-13T13:45:53.973Z,40.38
2023-04-13T13:48:21.925Z,40.46
2023-04-13T13:50:49.263Z,41.08
2023-04-13T13:53:16.091Z,41.02
2023-04-13T13:55:42.917Z,41.19
2023-04-13T13:58:09.869Z,41.41
2023-04-13T14:00:36.939Z,41.67
2023-04-13T14:03:04.021Z,41.82
2023-04-13T14:05:30.931Z,42.05
2023-04-13T14:07:57.654Z,41.84
2023-04-13T14:10:24.574Z,41.89
2023-04-13T14:12:52.966Z,42.44
2023-04-13T14:15:19.696Z,42.85
2023-04-13T14:17:55.555Z,42.72
2023-04-13T14:20:39.261Z,42.96
2023-04-13T14:23:06.902Z,43.36
2023-04-13T14:25:33.657Z,43.34
2023-04-13T14:28:01.064Z,43.55
2023-04-13T14:30:28.572Z,43.69
2023-04-13T14:32:56.475Z,43.75
2023-04-13T14:35:24.236Z,44.23
2023-04-13T14:37:51.538Z,44.20
2023-04-13T14:40:22.111Z,44.41
2023-04-13T14:42:50.980Z,44.74
2023-04-13T14:45:18.111Z,44.87
2023-04-13T14:47:44.895Z,44.58
2023-04-13T14:50:12.232Z,44.79
2023-04-13T14:52:40.027Z,45.05
2023-04-13T14:55:07.157Z,45.21
2023-04-13T14:57:33.867Z,44.78
2023-04-13T15:00:00.700Z,45.21
2023-04-13T15:02:28.420Z,44.97
2023-04-13T15:04:56.070Z,44.69
2023-04-13T15:07:30.063Z,44.47
2023-04-13T15:09:59.123Z,45.09
2023-04-13T15:12:25.947Z,45.11
2023-04-13T15:14:52.932Z,45.20
2023-04-13T15:17:21.175Z,45.25
2023-04-13T15:19:48.033Z,45.16
2023-04-13T15:22:14.907Z,45.08
2023-04-13T15:24:41.623Z,45.28
2023-04-13T15:27:08.401Z,44.87
2023-04-13T15:29:35.356Z,44.95
2023-04-13T15:32:02.409Z,44.85
2023-04-13T15:34:29.251Z,44.72
2023-04-13T15:36:57.160Z,44.96
2023-04-13T15:39:23.897Z,44.53
2023-04-13T15:41:52.797Z,44.67
2023-04-13T15:44:19.584Z,44.86
2023-04-13T15:46:48.207Z,44.99
2023-04-13T15:49:15.150Z,44.51
2023-04-13T15:51:42.529Z,44.28
2023-04-13T15:54:09.356Z,44.48
2023-04-13T15:56:36.546Z,44.84
2023-04-13T15:59:03.270Z,44.65
2023-04-13T16:01:45.686Z,45.12
2023-04-13T16:04:12.739Z,44.85
2023-04-13T16:06:39.976Z,45.06
2023-04-13T16:09:09.920Z,45.46
2023-04-13T16:11:39.994Z,45.37
2023-04-13T16:14:09.588Z,45.83
2023-04-13T16:16:46.870Z,45.82
2023-04-13T16:19:14.144Z,46.51
2023-04-13T16:21:43.655Z,46.03
2023-04-13T16:24:10.789Z,46.16
2023-04-13T16:26:38.045Z,45.83
2023-04-13T16:29:05.266Z,46.20
2023-04-13T16:31:32.127Z,46.35
2023-04-13T16:33:59.121Z,46.04
2023-04-13T16:36:26.064Z,46.09
2023-04-13T16:38:53.165Z,46.23
2023-04-13T16:41:20.048Z,46.18
2023-04-13T16:43:46.886Z,46.14
2023-04-13T16:46:17.122Z,46.09
2023-04-13T16:48:44.059Z,45.74
2023-04-13T16:51:10.868Z,45.97
2023-04-13T16:53:38.319Z,45.58
2023-04-13T16:56:05.516Z,45.40
2023-04-13T16:58:32.992Z,45.90
2023-04-13T17:00:59.908Z,46.26
2023-04-13T17:03:27.135Z,46.12
2023-04-13T17:05:55.071Z,46.13
2023-04-13T17:08:21.893Z,46.47
2023-04-13T17:10:51.692Z,46.76
2023-04-13T17:13:18.472Z,47.36
2023-04-13T17:15:45.215Z,47.58
2023-04-13T17:18:12.449Z,47.61
2023-04-13T17:20:39.889Z,47.77
2023-04-13T17:23:06.687Z,48.01
2023-04-13T17:25:35.125Z,47.78
2023-04-13T17:28:02.166Z,47.98
2023-04-13T17:30:29.073Z,48.24
2023-04-13T17:32:56.157Z,48.12
2023-04-13T17:35:23.068Z,48.16
2023-04-13T17:37:49.902Z,48.43
2023-04-13T17:40:17.166Z,48.17
2023-04-13T17:42:44.329Z,48.55
2023-04-13T17:45:11.714Z,48.91
2023-04-13T17:47:38.689Z,48.46
2023-04-13T17:50:06.030Z,48.94
2023-04-13T17:52:32.851Z,48.75
2023-04-13T17:54:59.709Z,48.71
2023-04-13T17:57:26.655Z,48.63
2023-04-13T17:59:53.401Z,48.39
2023-04-13T18:02:20.732Z,48.75
2023-04-13T18:04:48.446Z,48.89
2023-04-13T18:07:15.592Z,48.89
2023-04-13T18:09:42.481Z,49.10
2023-04-13T18:12:09.216Z,49.29
2023-04-13T18:14:35.974Z,48.99
2023-04-13T18:17:02.883Z,49.40
2023-04-13T18:19:32.389Z,49.48
2023-04-13T18:21:59.239Z,49.42
2023-04-13T18:24:26.368Z,49.09
2023-04-13T18:26:53.120Z,49.05
2023-04-13T18:29:19.965Z,49.42
2023-04-13T18:31:46.951Z,49.27
2023-04-13T18:34:13.980Z,49.43
2023-04-13T18:36:41.912Z,49.47
2023-04-13T18:39:08.939Z,49.11
2023-04-13T18:41:36.013Z,49.26
2023-04-13T18:44:03.486Z,49.39
2023-04-13T18:46:30.492Z,49.02
2023-04-13T18:48:57.439Z,49.48
2023-04-13T18:51:24.184Z,49.67
2023-04-13T18:53:51.011Z,49.58
2023-04-13T18:56:17.824Z,49.75
2023-04-13T18:58:45.083Z,50.08
2023-04-13T19:01:16.762Z,50.13
2023-04-13T19:03:43.874Z,50.03
2023-04-13T19:06:11.391Z,50.18
2023-04-13T19:08:38.913Z,50.15
2023-04-13T19:11:05.725Z,50.56
2023-04-13T19:13:32.497Z,50.26
2023-04-13T19:15:59.419Z,50.75
2023-04-13T19:18:26.182Z,50.85
2023-04-13T19:20:53.073Z,51.08
2023-04-13T19:23:19.861Z,51.37
2023-04-13T19:25:47.733Z,51.46
2023-04-13T19:28:14.533Z,51.81
2023-04-13T19:30:41.515Z,51.78
2023-04-13T19:33:08.237Z,52.28
2023-04-13T19:35:35.110Z,52.38
2023-04-13T19:38:02.052Z,52.29
2023-04-13T19:40:29.234Z,52.33
2023-04-13T19:42:56.179Z,52.31
2023-04-13T19:45:24.332Z,52.41
2023-04-13T19:47:53.016Z,52.43
2023-04-13T19:50:19.842Z,52.56
2023-04-13T19:52:47.684Z,52.92
2023-04-13T19:55:14.457Z,53.01
2023-04-13T19:57:42.948Z,52.48
2023-04-13T20:00:17.465Z,52.60
2023-04-13T20:02:45.378Z,52.47
2023-04-13T20:05:12.508Z,52.53
2023-04-13T20:07:39.397Z,52.31
2023-04-13T20:10:07.826Z,52.39
2023-04-13T20:12:34.652Z,52.47
2023-04-13T20:15:01.530Z,52.41
2023-04-13T20:17:28.317Z,52.42
2023-04-13T20:19:55.502Z,52.20
2023-04-13T20:22:22.423Z,52.25
2023-04-13T20:24:49.203Z,52.04
2023-04-13T20:27:16.048Z,52.18
2023-04-13T20:29:42.940Z,52.07
2023-04-13T20:32:09.770Z,52.37
2023-04-13T20:34:36.652Z,52.32
2023-04-13T20:37:03.484Z,52.28
2023-04-13T20:39:30.635Z,52.46
2023-04-13T20:41:57.940Z,52.62
2023-04-13T20:44:25.028Z,52.85
2023-04-13T20:46:55.185Z,53.21
2023-04-13T20:49:25.736Z,53.35
2023-04-13T20:51:56.110Z,53.41
2023-04-13T20:54:23.477Z,53.57
2023-04-13T20:56:50.644Z,53.43
2023-04-13T20:59:18.352Z,53.63
2023-04-13T21:01:45.722Z,53.63
2023-04-13T21:04:12.997Z,53.86
2023-04-13T21:06:40.675Z,53.47
2023-04-13T21:09:08.706Z,53.55
2023-04-13T21:11:35.884Z,53.87
2023-04-13T21:14:03.078Z,53.86
2023-04-13T21:16:30.181Z,53.95
2023-04-13T21:18:57.320Z,53.92
2023-04-13T21:21:25.126Z,53.89
2023-04-13T21:23:52.726Z,53.96
2023-04-13T21:26:20.401Z,53.82
2023-04-13T21:28:47.311Z,53.96
2023-04-13T21:31:14.255Z,53.97
2023-04-13T21:33:41.338Z,53.79
2023-04-13T21:38:40.011Z,53.91
2023-04-13T21:41:07.335Z,53.90
2023-04-13T21:43:34.474Z,53.66
2023-04-13T21:46:01.428Z,53.60
2023-04-13T21:48:28.385Z,53.68
2023-04-13T21:50:55.310Z,53.71
2023-04-13T21:53:22.157Z,53.60
2023-04-13T21:55:49.205Z,54.11
2023-04-13T21:58:16.161Z,53.93
2023-04-13T22:00:43.064Z,53.90
2023-04-13T22:03:12.453Z,53.84
2023-04-13T22:05:40.674Z,54.19
2023-04-13T22:08:07.577Z,54.10
2023-04-13T22:10:34.517Z,53.90
2023-04-13T22:13:01.348Z,53.83
2023-04-13T22:15:28.252Z,54.15
2023-04-13T22:17:55.236Z,54.27
2023-04-13T22:20:22.036Z,54.03
2023-04-13T22:22:48.789Z,54.23
2023-04-13T22:25:15.801Z,54.40
2023-04-13T22:27:42.555Z,54.39
2023-04-13T22:30:09.806Z,54.21
2023-04-13T22:32:36.855Z,54.29
2023-04-13T22:35:04.853Z,54.16
2023-04-13T22:37:31.794Z,54.07
2023-04-13T22:40:01.204Z,54.08
2023-04-13T22:42:28.439Z,54.26
2023-04-13T22:44:55.191Z,54.29
2023-04-13T22:47:22.027Z,54.31
2023-04-13T22:49:49.358Z,54.28
2023-04-13T22:52:19.454Z,54.39
2023-04-13T22:54:46.943Z,54.75
2023-04-13T22:57:13.686Z,54.70
2023-04-13T22:59:40.970Z,54.71
2023-04-13T23:02:07.865Z,54.50
2023-04-13T23:04:35.026Z,54.70
2023-04-13T23:07:01.939Z,54.26
2023-04-13T23:09:28.959Z,54.64
2023-04-13T23:11:55.857Z,54.65
2023-04-13T23:14:23.943Z,54.65
2023-04-13T23:16:50.832Z,54.85
2023-04-13T23:19:18.787Z,54.90
2023-04-13T23:21:48.788Z,54.74
2023-04-13T23:24:15.602Z,54.79
2023-04-13T23:26:42.494Z,54.85
2023-04-13T23:29:09.424Z,54.92
2023-04-13T23:31:36.210Z,55.00
2023-04-13T23:34:03.024Z,54.98
2023-04-13T23:36:29.880Z,55.19
2023-04-13T23:38:56.601Z,55.08
2023-04-13T23:41:23.707Z,55.19
2023-04-13T23:43:51.878Z,55.45
2023-04-13T23:46:18.737Z,55.36
2023-04-13T23:48:45.582Z,55.20
2023-04-13T23:51:12.440Z,55.10
2023-04-13T23:53:39.157Z,55.24
2023-04-13T23:56:06.678Z,55.23
2023-04-13T23:58:33.570Z,54.90
